createdAt,value
2024-03-05T00:01:38.701Z,99396.91
2024-03-05T00:04:09.133Z,99389.41
2024-03-05T00:06:38.764Z,99385.22
2024-03-05T00:09:06.632Z,99383.22
2024-03-05T00:11:34.234Z,99391.56
2024-03-05T00:14:01.488Z,99391.91
2024-03-05T00:16:29.519Z,99385.69
2024-03-05T00:18:56.747Z,99400.84
2024-03-05T00:21:23.878Z,99393.47
2024-03-05T00:23:51.298Z,99401.78
2024-03-05T00:26:19.537Z,99404.41
2024-03-05T00:28:46.658Z,99399.87
2024-03-05T00:31:14.191Z,99403.22
2024-03-05T00:33:41.349Z,99398.59
2024-03-05T00:36:08.895Z,99407.63
2024-03-05T00:38:36.330Z,99401.06
2024-03-05T00:41:03.660Z,99394.66
2024-03-05T00:43:31.041Z,99400.09
2024-03-05T00:45:58.525Z,99399.87
2024-03-05T00:48:25.636Z,99392.97
2024-03-05T00:50:53.022Z,99402.38
2024-03-05T00:53:21.777Z,99400.94
2024-03-05T00:55:48.907Z,99401.69
2024-03-05T00:58:16.580Z,99405.34
2024-03-05T01:00:44.562Z,99399.87
2024-03-05T01:03:11.719Z,99399.53
2024-03-05T01:05:38.865Z,99403.94
2024-03-05T01:08:06.597Z,99405.81
2024-03-05T01:10:33.824Z,99404.78
2024-03-05T01:13:01.482Z,99403.69
2024-03-05T01:15:30.281Z,99405.59
2024-03-05T01:17:58.748Z,99398.22
2024-03-05T01:20:27.042Z,99403.69
2024-03-05T01:22:54.548Z,99406.56
2024-03-05T01:25:21.759Z,99402.97
2024-03-05T01:27:48.891Z,99398.44
2024-03-05T01:30:17.198Z,99399.87
2024-03-05T01:33:07.001Z,99400.00
2024-03-05T01:35:34.696Z,99402.97
2024-03-05T01:38:01.788Z,99394.41
2024-03-05T01:40:29.051Z,99402.28
2024-03-05T01:42:56.495Z,99404.16
2024-03-05T01:45:24.347Z,99400.19
2024-03-05T01:47:51.447Z,99403.88
2024-03-05T01:50:19.649Z,99396.59
2024-03-05T01:52:47.496Z,99391.50
2024-03-05T01:55:16.057Z,99391.75
2024-03-05T01:57:48.015Z,99398.28
2024-03-05T02:00:17.306Z,99392.69
2024-03-05T02:02:48.382Z,99392.44
2024-03-05T02:05:15.567Z,99395.78
2024-03-05T02:07:44.084Z,99384.94
2024-03-05T02:10:11.538Z,99394.56
2024-03-05T02:12:39.244Z,99398.41
2024-03-05T02:15:07.459Z,99388.12
2024-03-05T02:17:34.845Z,99393.13
2024-03-05T02:20:02.489Z,99401.59
2024-03-05T02:22:30.161Z,99387.16
2024-03-05T02:24:59.216Z,99394.31
2024-03-05T02:27:30.512Z,99400.16
2024-03-05T02:30:04.072Z,99402.41
2024-03-05T02:32:34.437Z,99403.88
2024-03-05T02:35:03.269Z,99405.31
2024-03-05T02:37:30.401Z,99414.34
2024-03-05T02:39:59.125Z,99417.69
2024-03-05T02:42:26.509Z,99415.84
2024-03-05T02:44:53.625Z,99425.16
2024-03-05T02:47:21.442Z,99421.94
2024-03-05T02:49:49.572Z,99431.59
2024-03-05T02:52:17.015Z,99423.50
2024-03-05T02:54:44.715Z,99431.84
2024-03-05T02:57:12.109Z,99425.53
2024-03-05T02:59:39.256Z,99426.59
2024-03-05T03:02:06.876Z,99424.91
2024-03-05T03:04:34.556Z,99422.06
2024-03-05T03:07:02.005Z,99428.50
2024-03-05T03:09:30.700Z,99429.75
2024-03-05T03:11:58.131Z,99426.31
2024-03-05T03:14:25.784Z,99430.19
2024-03-05T03:16:53.616Z,99436.47
2024-03-05T03:19:23.058Z,99440.03
2024-03-05T03:21:50.613Z,99432.78
2024-03-05T03:24:19.197Z,99433.72
2024-03-05T03:26:46.784Z,99441.38
2024-03-05T03:29:14.373Z,99444.59
2024-03-05T03:31:48.297Z,99446.25
2024-03-05T03:34:18.571Z,99439.22
2024-03-05T03:36:51.398Z,99440.16
2024-03-05T03:39:25.327Z,99445.06
2024-03-05T03:41:56.362Z,99446.25
2024-03-05T03:44:25.650Z,99446.59
2024-03-05T03:46:52.735Z,99457.47
2024-03-05T03:49:25.789Z,99453.53
2024-03-05T03:51:55.213Z,99450.44
2024-03-05T03:54:23.048Z,99465.44
2024-03-05T03:56:50.704Z,99459.13
2024-03-05T03:59:18.718Z,99452.44
2024-03-05T04:01:51.163Z,99463.56
2024-03-05T04:04:18.769Z,99460.47
2024-03-05T04:06:49.321Z,99458.69
2024-03-05T04:09:16.519Z,99460.34
2024-03-05T04:11:44.070Z,99466.06
2024-03-05T04:14:11.644Z,99460.00
2024-03-05T04:16:43.987Z,99459.72
2024-03-05T04:19:12.097Z,99458.53
2024-03-05T04:21:47.100Z,99472.38
2024-03-05T04:24:15.239Z,99473.06
2024-03-05T04:26:42.974Z,99473.34
2024-03-05T04:29:17.709Z,99462.22
2024-03-05T04:31:54.155Z,99472.16
2024-03-05T04:34:26.159Z,99472.84
2024-03-05T04:36:56.207Z,99472.16
2024-03-05T04:39:25.255Z,99468.78
2024-03-05T04:41:52.875Z,99469.25
2024-03-05T04:44:20.820Z,99469.25
2024-03-05T04:46:49.105Z,99469.00
2024-03-05T04:49:17.348Z,99464.16
2024-03-05T04:51:44.847Z,99461.88
2024-03-05T04:54:12.216Z,99464.97
2024-03-05T04:56:39.805Z,99477.28
2024-03-05T04:59:07.307Z,99462.84
2024-03-05T05:01:35.615Z,99469.25
2024-03-05T05:04:03.813Z,99475.69
2024-03-05T05:06:33.677Z,99475.00
2024-03-05T05:09:01.795Z,99475.00
2024-03-05T05:11:30.335Z,99480.59
2024-03-05T05:13:58.421Z,99477.47
2024-03-05T05:16:25.793Z,99480.94
2024-03-05T05:18:54.956Z,99480.38
2024-03-05T05:21:23.366Z,99488.00
2024-03-05T05:23:50.864Z,99490.97
2024-03-05T05:26:18.099Z,99490.25
2024-03-05T05:28:45.564Z,99493.38
2024-03-05T05:31:25.640Z,99489.53
2024-03-05T05:33:56.227Z,99489.03
2024-03-05T05:36:23.860Z,99492.97
2024-03-05T05:38:51.599Z,99493.22
2024-03-05T05:41:22.727Z,99494.66
2024-03-05T05:43:50.220Z,99501.44
2024-03-05T05:46:20.252Z,99504.06
2024-03-05T05:48:50.618Z,99506.69
2024-03-05T05:51:23.550Z,99508.34
2024-03-05T05:53:52.109Z,99509.78
2024-03-05T05:56:22.172Z,99498.66
2024-03-05T05:58:49.566Z,99509.50
2024-03-05T06:01:17.147Z,99508.88
2024-03-05T06:03:47.309Z,99508.47
2024-03-05T06:06:17.958Z,99507.22
2024-03-05T06:08:47.350Z,99515.31
2024-03-05T06:11:14.646Z,99508.91
2024-03-05T06:13:42.898Z,99505.25
2024-03-05T06:16:11.361Z,99514.75
2024-03-05T06:18:38.472Z,99521.16
2024-03-05T06:21:06.572Z,99520.06
2024-03-05T06:23:36.174Z,99515.72
2024-03-05T06:26:03.530Z,99520.56
2024-03-05T06:28:30.892Z,99522.00
2024-03-05T06:30:58.392Z,99520.37
2024-03-05T06:33:26.012Z,99528.56
2024-03-05T06:35:53.264Z,99526.00
2024-03-05T06:38:20.838Z,99533.12
2024-03-05T06:40:48.495Z,99536.47
2024-03-05T06:43:22.443Z,99541.63
2024-03-05T06:45:50.646Z,99546.66
2024-03-05T06:48:24.864Z,99539.81
2024-03-05T06:51:01.890Z,99543.84
2024-03-05T06:53:48.289Z,99546.38
2024-03-05T06:56:34.518Z,99546.63
2024-03-05T06:59:02.232Z,99554.53
2024-03-05T07:01:30.001Z,99556.34
2024-03-05T07:03:58.207Z,99559.66
2024-03-05T07:06:25.391Z,99559.34
2024-03-05T07:08:55.160Z,99566.97
2024-03-05T07:11:25.985Z,99562.03
2024-03-05T07:13:53.898Z,99574.28
2024-03-05T07:16:21.421Z,99568.69
2024-03-05T07:18:51.957Z,99573.63
2024-03-05T07:21:22.926Z,99575.09
2024-03-05T07:23:52.540Z,99573.00
2024-03-05T07:26:22.282Z,99572.44
2024-03-05T07:28:50.876Z,99583.03
2024-03-05T07:31:19.428Z,99582.41
2024-03-05T07:34:02.266Z,99592.62
2024-03-05T07:36:29.436Z,99579.50
2024-03-05T07:39:00.786Z,99590.97
2024-03-05T07:41:34.101Z,99592.53
2024-03-05T07:44:07.341Z,99586.25
2024-03-05T07:46:36.449Z,99591.00
2024-03-05T07:49:05.578Z,99593.44
2024-03-05T07:51:41.136Z,99597.41
2024-03-05T07:54:14.232Z,99609.59
2024-03-05T07:56:44.455Z,99605.25
2024-03-05T07:59:24.321Z,99608.56
2024-03-05T08:01:53.169Z,99618.53
2024-03-05T08:04:20.633Z,99616.19
2024-03-05T08:06:47.934Z,99622.00
2024-03-05T08:09:15.861Z,99618.41
2024-03-05T08:11:43.296Z,99614.53
2024-03-05T08:14:10.589Z,99624.03
2024-03-05T08:16:39.834Z,99627.16
2024-03-05T08:19:10.233Z,99620.53
2024-03-05T08:21:37.511Z,99629.63
2024-03-05T08:24:06.719Z,99627.63
2024-03-05T08:26:35.958Z,99632.81
2024-03-05T08:29:05.509Z,99628.91
2024-03-05T08:31:33.338Z,99636.25
2024-03-05T08:34:05.999Z,99637.31
2024-03-05T08:36:38.670Z,99639.25
2024-03-05T08:39:16.857Z,99633.56
2024-03-05T08:41:45.781Z,99647.38
2024-03-05T08:44:13.361Z,99640.91
2024-03-05T08:46:40.583Z,99642.72
2024-03-05T08:49:09.146Z,99647.00
2024-03-05T08:51:39.449Z,99647.28
2024-03-05T08:54:10.289Z,99649.50
2024-03-05T08:56:41.199Z,99653.28
2024-03-05T08:59:08.673Z,99656.94
2024-03-05T09:01:36.489Z,99664.63
2024-03-05T09:04:07.444Z,99661.78
2024-03-05T09:06:34.555Z,99671.69
2024-03-05T09:09:01.868Z,99670.63
2024-03-05T09:11:30.592Z,99679.09
2024-03-05T09:13:57.845Z,99685.53
2024-03-05T09:16:26.979Z,99677.19
2024-03-05T09:18:55.163Z,99680.16
2024-03-05T09:21:22.390Z,99681.87
2024-03-05T09:23:51.252Z,99675.00
2024-03-05T09:26:20.244Z,99676.47
2024-03-05T09:28:48.468Z,99673.44
2024-03-05T09:31:15.796Z,99674.59
2024-03-05T09:33:43.394Z,99668.91
2024-03-05T09:36:10.644Z,99670.53
2024-03-05T09:38:38.215Z,99668.78
2024-03-05T09:41:14.489Z,99674.16
2024-03-05T09:46:21.318Z,99671.38
2024-03-05T09:48:49.051Z,99674.63
2024-03-05T09:51:16.746Z,99658.09
2024-03-05T09:53:44.172Z,99663.81
2024-03-05T09:56:11.342Z,99666.44
2024-03-05T09:58:42.625Z,99683.56
2024-03-05T10:04:32.934Z,99670.50
2024-03-05T10:07:00.956Z,99671.78
2024-03-05T10:09:28.670Z,99664.50
2024-03-05T10:11:56.991Z,99664.16
2024-03-05T10:14:25.612Z,99675.53
2024-03-05T10:17:01.665Z,99667.91
2024-03-05T10:19:41.700Z,99664.09
2024-03-05T10:22:12.252Z,99659.41
2024-03-05T10:24:41.994Z,99662.09
2024-03-05T10:27:10.820Z,99660.03
2024-03-05T10:29:40.092Z,99661.56
2024-03-05T10:32:12.865Z,99667.34
2024-03-05T10:34:44.677Z,99671.34
2024-03-05T10:37:14.199Z,99671.91
2024-03-05T10:39:48.756Z,99669.94
2024-03-05T10:42:18.410Z,99653.28
2024-03-05T10:44:47.878Z,99668.84
2024-03-05T10:47:16.395Z,99663.94
2024-03-05T10:53:17.923Z,99659.53
2024-03-05T10:59:16.911Z,99664.88
2024-03-05T11:01:46.423Z,99666.75
2024-03-05T11:04:20.165Z,99660.63
2024-03-05T11:06:56.582Z,99656.94
2024-03-05T11:09:37.796Z,99657.19
2024-03-05T11:12:10.067Z,99662.16
2024-03-05T11:14:38.951Z,99648.91
2024-03-05T11:17:13.867Z,99648.28
2024-03-05T11:19:44.308Z,99651.47
2024-03-05T11:22:28.430Z,99656.47
2024-03-05T11:25:06.611Z,99647.97
2024-03-05T11:27:38.057Z,99649.75
2024-03-05T11:30:13.550Z,99656.94
2024-03-05T11:32:45.041Z,99651.44
2024-03-05T11:35:14.840Z,99653.78
2024-03-05T11:37:53.406Z,99653.34
2024-03-05T11:40:29.695Z,99651.78
2024-03-05T11:42:58.894Z,99655.31
2024-03-05T11:45:46.028Z,99656.28
2024-03-05T11:48:16.367Z,99649.13
2024-03-05T11:50:44.852Z,99656.50
2024-03-05T11:53:13.325Z,99662.84
2024-03-05T11:55:42.744Z,99647.41
2024-03-05T11:58:12.376Z,99645.16
2024-03-05T12:00:40.583Z,99649.16
2024-03-05T12:03:08.905Z,99643.59
2024-03-05T12:05:43.653Z,99638.13
2024-03-05T12:08:14.926Z,99641.56
2024-03-05T12:10:43.330Z,99644.38
2024-03-05T12:13:18.954Z,99643.69
2024-03-05T12:16:13.085Z,99653.66
2024-03-05T12:18:44.227Z,99650.69
2024-03-05T12:21:12.052Z,99655.41
2024-03-05T12:23:42.530Z,99646.06
2024-03-05T12:26:12.134Z,99651.69
2024-03-05T12:28:40.189Z,99647.97
2024-03-05T12:31:27.941Z,99648.91
2024-03-05T12:33:58.211Z,99640.19
2024-03-05T12:36:27.233Z,99644.63
2024-03-05T12:38:58.454Z,99637.88
2024-03-05T12:41:28.085Z,99643.66
2024-03-05T12:43:57.227Z,99634.69
2024-03-05T12:46:25.167Z,99644.16
2024-03-05T12:48:59.034Z,99637.78
2024-03-05T12:51:27.270Z,99636.31
2024-03-05T12:54:08.966Z,99639.66
2024-03-05T12:56:46.622Z,99630.53
2024-03-05T12:59:19.537Z,99630.31
2024-03-05T13:01:47.604Z,99638.97
2024-03-05T13:04:17.158Z,99632.31
2024-03-05T13:06:48.800Z,99633.94
2024-03-05T13:09:21.935Z,99635.19
2024-03-05T13:11:56.688Z,99627.72
2024-03-05T13:14:27.324Z,99625.81
2024-03-05T13:16:57.338Z,99634.22
2024-03-05T13:19:25.588Z,99638.16
2024-03-05T13:21:54.485Z,99637.94
2024-03-05T13:24:22.951Z,99636.13
2024-03-05T13:26:51.224Z,99633.97
2024-03-05T13:29:20.949Z,99640.28
2024-03-05T13:31:49.741Z,99636.06
2024-03-05T13:34:23.632Z,99645.31
2024-03-05T13:36:51.934Z,99645.50
2024-03-05T13:39:25.698Z,99639.09
2024-03-05T13:45:24.268Z,99639.56
2024-03-05T13:47:53.453Z,99655.44
2024-03-05T13:54:04.272Z,99648.63
2024-03-05T13:56:38.981Z,99642.22
2024-03-05T13:59:11.889Z,99651.69
2024-03-05T14:01:43.898Z,99651.69
2024-03-05T14:04:27.615Z,99649.50
2024-03-05T14:07:08.741Z,99650.59
2024-03-05T14:09:40.071Z,99654.94
2024-03-05T14:12:21.068Z,99656.31
2024-03-05T14:14:49.802Z,99655.28
2024-03-05T14:17:17.692Z,99658.59
2024-03-05T14:19:49.007Z,99650.19
2024-03-05T14:22:18.670Z,99656.31
2024-03-05T14:24:46.512Z,99665.31
2024-03-05T14:27:17.328Z,99663.81
2024-03-05T14:29:51.084Z,99662.34
2024-03-05T14:32:20.766Z,99658.91
2024-03-05T14:34:57.195Z,99660.41
2024-03-05T14:37:25.207Z,99665.37
2024-03-05T14:43:28.789Z,99667.97
2024-03-05T14:49:28.834Z,99674.13
2024-03-05T14:51:57.268Z,99669.97
2024-03-05T14:54:25.328Z,99673.97
2024-03-05T14:56:53.256Z,99676.66
2024-03-05T14:59:24.532Z,99668.84
2024-03-05T15:01:54.619Z,99671.16
2024-03-05T15:04:22.740Z,99682.94
2024-03-05T15:06:51.605Z,99677.53
2024-03-05T15:09:24.200Z,99679.81
2024-03-05T15:11:52.588Z,99685.19
2024-03-05T15:14:23.860Z,99689.63
2024-03-05T15:20:26.150Z,99696.84
2024-03-05T15:23:09.415Z,99694.53
2024-03-05T15:25:49.402Z,99692.38
2024-03-05T15:28:16.843Z,99700.84
2024-03-05T15:30:51.820Z,99706.16
2024-03-05T15:33:20.910Z,99705.19
2024-03-05T15:35:52.694Z,99702.38
2024-03-05T15:38:23.897Z,99717.81
2024-03-05T15:40:56.671Z,99711.50
2024-03-05T15:43:24.142Z,99712.50
2024-03-05T15:46:08.797Z,99724.47
2024-03-05T15:48:43.093Z,99724.00
2024-03-05T15:51:13.177Z,99727.78
2024-03-05T15:53:54.359Z,99727.09
2024-03-05T15:57:02.529Z,99724.59
2024-03-05T16:00:01.258Z,99723.41
2024-03-05T16:02:31.504Z,99738.53
2024-03-05T16:05:17.560Z,99740.97
2024-03-05T16:07:55.051Z,99743.44
2024-03-05T16:10:30.926Z,99738.28
2024-03-05T16:13:08.669Z,99751.53
2024-03-05T16:15:37.704Z,99746.34
2024-03-05T16:18:09.433Z,99758.06
2024-03-05T16:20:40.690Z,99757.41
2024-03-05T16:23:11.964Z,99754.19
2024-03-05T16:25:52.778Z,99754.81
2024-03-05T16:28:22.380Z,99755.25
2024-03-05T16:30:52.834Z,99770.41
2024-03-05T16:33:20.459Z,99767.59
2024-03-05T16:35:48.336Z,99777.31
2024-03-05T16:38:16.125Z,99776.75
2024-03-05T16:40:43.615Z,99779.81
2024-03-05T16:43:11.628Z,99783.06
2024-03-05T16:45:39.790Z,99778.69
2024-03-05T16:48:10.462Z,99787.94
2024-03-05T16:50:40.579Z,99789.91
2024-03-05T16:53:10.398Z,99783.22
2024-03-05T16:55:38.965Z,99785.44
2024-03-05T16:58:13.464Z,99793.00
2024-03-05T17:00:48.839Z,99789.50
2024-03-05T17:03:20.026Z,99794.03
2024-03-05T17:05:52.208Z,99787.59
2024-03-05T17:08:24.855Z,99792.53
2024-03-05T17:10:55.960Z,99801.47
2024-03-05T17:13:27.295Z,99798.16
2024-03-05T17:16:01.635Z,99802.84
2024-03-05T17:18:31.991Z,99801.56
2024-03-05T17:20:59.887Z,99798.38
2024-03-05T17:23:28.278Z,99802.84
2024-03-05T17:25:57.728Z,99810.00
2024-03-05T17:28:27.954Z,99798.84
2024-03-05T17:30:57.658Z,99806.50
2024-03-05T17:33:26.920Z,99812.63
2024-03-05T17:35:58.401Z,99810.00
2024-03-05T17:38:29.494Z,99806.09
2024-03-05T17:40:59.299Z,99813.78
2024-03-05T17:43:26.650Z,99812.69
2024-03-05T17:45:54.373Z,99819.38
2024-03-05T17:48:22.760Z,99815.91
2024-03-05T17:50:50.067Z,99811.56
2024-03-05T17:53:17.455Z,99820.63
2024-03-05T17:55:46.374Z,99813.41
2024-03-05T17:58:13.795Z,99818.97
2024-03-05T18:00:47.245Z,99815.09
2024-03-05T18:03:16.141Z,99819.28
2024-03-05T18:05:47.018Z,99818.19
2024-03-05T18:08:15.804Z,99816.75
2024-03-05T18:10:43.349Z,99808.28
2024-03-05T18:13:11.049Z,99820.97
2024-03-05T18:15:38.579Z,99819.31
2024-03-05T18:18:07.745Z,99815.28
2024-03-05T18:20:36.797Z,99821.81
2024-03-05T18:23:06.823Z,99821.13
2024-03-05T18:25:36.352Z,99820.72
2024-03-05T18:28:06.303Z,99820.59
2024-03-05T18:30:38.834Z,99824.75
2024-03-05T18:33:08.698Z,99825.72
2024-03-05T18:35:40.687Z,99828.50
2024-03-05T18:38:20.804Z,99831.56
2024-03-05T18:40:58.465Z,99830.59
2024-03-05T18:43:30.247Z,99834.75
2024-03-05T18:46:02.472Z,99828.09
2024-03-05T18:48:30.668Z,99828.88
2024-03-05T18:50:58.680Z,99837.53
2024-03-05T18:53:36.115Z,99840.44
2024-03-05T18:56:12.629Z,99836.66
2024-03-05T18:58:42.942Z,99835.00
2024-03-05T19:01:12.103Z,99837.34
2024-03-05T19:03:40.738Z,99840.84
2024-03-05T19:06:08.808Z,99839.97
2024-03-05T19:08:37.989Z,99840.66
2024-03-05T19:11:07.597Z,99844.81
2024-03-05T19:13:37.482Z,99845.09
2024-03-05T19:16:06.030Z,99840.66
2024-03-05T19:18:34.023Z,99845.34
2024-03-05T19:21:02.574Z,99843.28
2024-03-05T19:23:31.385Z,99849.66
2024-03-05T19:26:16.789Z,99854.94
2024-03-05T19:29:15.344Z,99855.47
2024-03-05T19:31:43.892Z,99851.75
2024-03-05T19:34:13.176Z,99850.44
2024-03-05T19:36:43.217Z,99842.53
2024-03-05T19:39:14.741Z,99844.72
2024-03-05T19:41:48.509Z,99850.97
2024-03-05T19:44:20.074Z,99849.56
2024-03-05T19:46:49.695Z,99849.13
2024-03-05T19:49:21.286Z,99855.81
2024-03-05T19:51:51.818Z,99849.41
2024-03-05T19:54:25.465Z,99845.53
2024-03-05T19:56:56.995Z,99845.53
2024-03-05T19:59:32.078Z,99847.00
2024-03-05T20:02:01.971Z,99847.44
2024-03-05T20:04:30.726Z,99836.28
2024-03-05T20:06:59.593Z,99843.22
2024-03-05T20:09:28.800Z,99836.44
2024-03-05T20:11:56.936Z,99852.09
2024-03-05T20:14:25.439Z,99838.63
2024-03-05T20:16:56.884Z,99839.00
2024-03-05T20:19:30.141Z,99849.25
2024-03-05T20:22:02.430Z,99838.69
2024-03-05T20:24:31.010Z,99843.66
2024-03-05T20:27:00.537Z,99834.78
2024-03-05T20:29:29.327Z,99840.34
2024-03-05T20:32:02.631Z,99840.56
2024-03-05T20:34:32.815Z,99837.25
2024-03-05T20:37:02.125Z,99839.75
2024-03-05T20:39:33.926Z,99838.91
2024-03-05T20:42:04.175Z,99846.97
2024-03-05T20:44:34.784Z,99839.56
2024-03-05T20:47:03.965Z,99831.78
2024-03-05T20:49:32.139Z,99829.69
2024-03-05T20:52:00.238Z,99828.13
2024-03-05T20:54:37.794Z,99819.38
2024-03-05T20:57:05.935Z,99823.56
2024-03-05T20:59:36.065Z,99833.25
2024-03-05T21:02:10.595Z,99840.22
2024-03-05T21:04:39.952Z,99839.38
2024-03-05T21:07:07.970Z,99840.47
2024-03-05T21:09:35.882Z,99836.62
2024-03-05T21:12:05.713Z,99836.75
2024-03-05T21:14:33.527Z,99833.25
2024-03-05T21:17:01.348Z,99840.47
2024-03-05T21:19:32.398Z,99842.13
2024-03-05T21:22:00.556Z,99846.84
2024-03-05T21:24:30.723Z,99847.22
2024-03-05T21:27:15.993Z,99835.72
2024-03-05T21:29:46.582Z,99844.31
2024-03-05T21:32:15.037Z,99838.41
2024-03-05T21:34:42.845Z,99835.53
2024-03-05T21:37:10.693Z,99840.41
2024-03-05T21:39:38.665Z,99843.16
2024-03-05T21:42:07.141Z,99849.03
2024-03-05T21:44:42.393Z,99849.25
2024-03-05T21:47:12.569Z,99847.87
2024-03-05T21:49:40.363Z,99851.84
2024-03-05T21:52:08.560Z,99852.53
2024-03-05T21:54:36.598Z,99859.44
2024-03-05T21:57:07.654Z,99858.09
2024-03-05T21:59:35.472Z,99866.81
2024-03-05T22:02:03.567Z,99868.03
2024-03-05T22:04:31.675Z,99861.78
2024-03-05T22:06:59.393Z,99864.94
2024-03-05T22:09:27.161Z,99869.38
2024-03-05T22:11:55.284Z,99873.69
2024-03-05T22:14:23.220Z,99884.47
2024-03-05T22:16:50.956Z,99883.25
2024-03-05T22:19:19.004Z,99886.34
2024-03-05T22:21:48.200Z,99881.88
2024-03-05T22:24:16.901Z,99881.53
2024-03-05T22:26:47.823Z,99889.13
2024-03-05T22:29:15.652Z,99895.84
2024-03-05T22:31:43.726Z,99892.13
2024-03-05T22:34:11.868Z,99892.25
2024-03-05T22:36:39.684Z,99893.87
2024-03-05T22:39:07.106Z,99898.94
2024-03-05T22:41:34.629Z,99903.00
2024-03-05T22:44:01.910Z,99905.00
2024-03-05T22:46:30.713Z,99899.44
2024-03-05T22:48:58.325Z,99904.72
2024-03-05T22:51:25.743Z,99907.22
2024-03-05T22:53:52.986Z,99908.56
2024-03-05T22:56:20.809Z,99915.00
2024-03-05T22:58:48.269Z,99912.38
2024-03-05T23:01:15.767Z,99914.44
2024-03-05T23:03:43.742Z,99913.22
2024-03-05T23:06:18.607Z,99920.53
2024-03-05T23:08:49.093Z,99921.00
2024-03-05T23:11:16.541Z,99926.16
2024-03-05T23:13:43.902Z,99922.31
2024-03-05T23:16:11.903Z,99926.38
2024-03-05T23:18:39.122Z,99923.50
2024-03-05T23:21:06.923Z,99926.38
2024-03-05T23:23:34.888Z,99923.88
2024-03-05T23:26:03.894Z,99924.22
2024-03-05T23:28:31.132Z,99927.47
2024-03-05T23:30:59.737Z,99928.16
2024-03-05T23:33:27.136Z,99926.38
2024-03-05T23:35:54.596Z,99927.22
2024-03-05T23:38:22.190Z,99933.06
2024-03-05T23:40:49.456Z,99924.09
2024-03-05T23:43:17.136Z,99919.31
2024-03-05T23:45:45.151Z,99918.59
2024-03-05T23:48:12.417Z,99920.53
2024-03-05T23:50:39.638Z,99917.03
2024-03-05T23:53:09.342Z,99915.72
2024-03-05T23:55:36.574Z,99918.47
2024-03-05T23:58:05.759Z,99928.97
